Time;durP1;ratioP1;P1;durP2;ratioP2;P2;SDS_P1;SDS_P2;PMS_P1;PMS_P2;Temp;Humidity;BMP_temperature;BMP_pressure;BME280_temperature;BME280_humidity;BME280_pressure;Samples;Min_cycle;Max_cycle;Signal;HPM_P1;HPM_P2
2021/12/15 00:01:53;;;;;;;8.45;3.90;;;;;;;21.07;37.74;102876.78;7313300;19;128960;-64
2021/12/15 00:04:20;;;;;;;8.13;3.70;;;;;;;21.06;37.93;102867.59;7313341;19;129044;-65
2021/12/15 00:06:46;;;;;;;7.35;4.25;;;;;;;21.04;37.99;102872.53;7313573;19;130765;-64
2021/12/15 00:09:14;;;;;;;9.00;4.32;;;;;;;21.02;37.98;102868.25;7316003;19;130857;-64
2021/12/15 00:11:42;;;;;;;5.65;3.70;;;;;;;21.01;37.61;102860.97;7311756;19;130596;-65
2021/12/15 00:14:15;;;;;;;5.88;4.03;;;;;;;20.99;37.66;102865.91;7312764;19;129192;-65
2021/12/15 00:16:43;;;;;;;6.13;3.70;;;;;;;20.97;37.84;102859.69;7311371;19;131072;-65
2021/12/15 00:19:10;;;;;;;8.18;4.28;;;;;;;20.94;37.70;102860.13;7312062;19;130765;-65
2021/12/15 00:21:37;;;;;;;6.18;3.95;;;;;;;20.93;37.90;102861.19;7313953;19;128717;-65
2021/12/15 00:24:05;;;;;;;6.30;4.18;;;;;;;20.92;38.00;102862.28;7310668;19;130305;-64
2021/12/15 00:26:33;;;;;;;7.53;3.83;;;;;;;20.88;38.15;102857.13;7313617;19;131693;-65
2021/12/15 00:29:01;;;;;;;6.85;4.32;;;;;;;20.86;37.96;102853.72;7307726;19;130615;-64
2021/12/15 00:31:32;;;;;;;5.75;4.18;;;;;;;20.84;37.88;102855.84;7312265;19;129329;-64
2021/12/15 00:34:00;;;;;;;5.22;4.10;;;;;;;20.83;38.16;102854.13;7309636;19;128969;-65
2021/12/15 00:36:27;;;;;;;8.50;4.20;;;;;;;20.81;38.01;102852.63;7312802;19;135408;-65
2021/12/15 00:38:54;;;;;;;7.40;4.32;;;;;;;20.80;37.77;102848.16;7312028;19;130511;-65
2021/12/15 00:41:21;;;;;;;9.65;4.15;;;;;;;20.78;38.10;102862.28;7313198;19;130695;-65
2021/12/15 00:43:48;;;;;;;9.13;3.65;;;;;;;20.77;38.24;102846.66;7313716;19;131062;-64
2021/12/15 00:46:15;;;;;;;6.03;4.35;;;;;;;20.76;38.07;102858.84;7310250;19;131260;-65
2021/12/15 00:48:42;;;;;;;7.25;4.20;;;;;;;20.74;38.07;102855.38;7314224;19;130582;-64
2021/12/15 00:51:09;;;;;;;4.90;3.42;;;;;;;20.74;38.35;102858.16;7310048;19;131370;-64
2021/12/15 00:53:36;;;;;;;7.72;4.13;;;;;;;20.74;37.88;102855.38;7313866;19;128936;-64
2021/12/15 00:56:03;;;;;;;5.30;3.90;;;;;;;20.72;38.39;102857.53;7309782;19;131351;-64
2021/12/15 00:58:30;;;;;;;8.43;4.00;;;;;;;20.71;38.27;102861.38;7312367;19;130576;-65
2021/12/15 01:01:01;;;;;;;5.35;3.80;;;;;;;20.69;38.06;102860.72;7309349;19;130444;-65
2021/12/15 01:03:30;;;;;;;5.35;3.83;;;;;;;20.67;38.00;102854.53;7312081;19;128860;-65
2021/12/15 01:06:04;;;;;;;9.52;4.00;;;;;;;20.65;38.29;102853.91;7310602;19;130737;-65
2021/12/15 01:08:33;;;;;;;8.18;4.03;;;;;;;20.64;38.35;102850.25;7309859;19;131451;-65
2021/12/15 01:11:21;;;;;;;6.40;3.53;;;;;;;20.64;38.28;102846.63;7309030;19;129299;-65
2021/12/15 01:22:25;;;;;;;5.35;4.10;;;;;;;20.56;38.35;102862.44;7310076;19;128839;-65
2021/12/15 01:24:56;;;;;;;6.68;3.83;;;;;;;20.55;38.25;102863.53;7310679;19;128947;-65
2021/12/15 01:27:23;;;;;;;5.32;3.50;;;;;;;20.55;38.29;102859.88;7313287;19;130635;-64
2021/12/15 01:29:50;;;;;;;6.70;3.78;;;;;;;20.54;38.22;102863.72;7309393;19;130655;-64
2021/12/15 01:32:17;;;;;;;5.63;3.67;;;;;;;20.52;38.36;102863.94;7312922;19;129402;-64
2021/12/15 01:34:44;;;;;;;5.78;3.65;;;;;;;20.52;38.43;102869.50;7308707;19;129437;-64
2021/12/15 01:37:12;;;;;;;6.38;3.92;;;;;;;20.52;38.26;102869.50;7310472;19;131189;-64
2021/12/15 01:39:40;;;;;;;5.20;3.38;;;;;;;20.51;38.06;102873.34;7309506;19;130686;-65
2021/12/15 01:42:07;;;;;;;4.68;3.67;;;;;;;20.50;38.45;102866.06;7308067;19;130196;-64
2021/12/15 01:47:19;;;;;;;6.32;3.70;;;;;;;20.48;38.48;102873.75;7308567;19;130523;-64
2021/12/15 01:49:53;;;;;;;4.97;3.97;;;;;;;20.48;37.90;102879.31;7309264;19;130546;-65
2021/12/15 01:52:25;;;;;;;6.75;3.92;;;;;;;20.47;38.46;102879.53;7309101;19;129476;-64
2021/12/15 01:54:56;;;;;;;5.78;3.30;;;;;;;20.46;38.51;102875.91;7311883;19;128957;-65
2021/12/15 01:57:27;;;;;;;6.97;3.90;;;;;;;20.45;38.39;102879.75;7307168;19;131184;-64
2021/12/15 01:59:55;;;;;;;4.50;3.55;;;;;;;20.45;38.54;102874.19;7309050;19;130534;-64
2021/12/15 02:02:23;;;;;;;5.30;3.17;;;;;;;20.43;38.25;102868.84;7310514;19;130267;-64
2021/12/15 02:04:52;;;;;;;5.35;3.63;;;;;;;20.44;38.24;102878.91;7306478;19;129500;-64
2021/12/15 02:07:21;;;;;;;4.90;3.65;;;;;;;20.42;38.32;102878.25;7308467;19;131300;-65
2021/12/15 02:12:30;;;;;;;6.05;3.50;;;;;;;20.40;38.12;102874.81;7311533;19;128971;-65
2021/12/15 02:14:58;;;;;;;4.07;3.47;;;;;;;20.39;38.50;102869.47;7308674;19;128968;-65
2021/12/15 02:17:25;;;;;;;7.80;3.78;;;;;;;20.38;38.20;102884.44;7310143;19;131540;-65
2021/12/15 02:19:52;;;;;;;5.20;3.22;;;;;;;20.38;38.61;102884.44;7308419;19;131409;-65
2021/12/15 02:22:19;;;;;;;6.03;3.72;;;;;;;20.38;38.13;102881.66;7310547;19;129875;-64
2021/12/15 02:24:49;;;;;;;4.65;3.40;;;;;;;20.36;38.35;102883.78;7311660;19;129084;-65
2021/12/15 02:27:16;;;;;;;6.82;3.58;;;;;;;20.36;38.42;102887.44;7312273;19;131621;-64
2021/12/15 02:29:43;;;;;;;4.57;3.38;;;;;;;20.36;38.57;102881.88;7317385;19;130529;-63
2021/12/15 02:32:44;;;;;;;4.43;3.53;;;;;;;20.36;38.57;102889.34;7311664;19;129705;-65
2021/12/15 02:37:46;;;;;;;5.10;3.28;;;;;;;20.34;38.01;102894.25;7316789;19;130596;-65
2021/12/15 02:40:17;;;;;;;11.73;3.63;;;;;;;20.32;38.47;102888.06;7315255;19;134479;-64
2021/12/15 02:42:47;;;;;;;6.10;3.80;;;;;;;20.32;38.36;102888.06;7318267;19;128987;-64
2021/12/15 02:45:21;;;;;;;6.43;3.70;;;;;;;20.31;38.55;102895.53;7314098;19;129195;-64
2021/12/15 02:47:48;;;;;;;5.32;3.22;;;;;;;20.31;38.33;102898.31;7315610;19;131269;-64
2021/12/15 02:50:21;;;;;;;4.47;3.30;;;;;;;20.30;38.16;102888.28;7312158;19;130814;-66
2021/12/15 02:52:50;;;;;;;3.90;3.40;;;;;;;20.32;38.58;102882.50;7313614;19;128901;-64
2021/12/15 02:55:17;;;;;;;7.43;3.50;;;;;;;20.32;38.04;102891.69;7317185;19;130289;-64
2021/12/15 02:57:45;;;;;;;4.65;3.70;;;;;;;20.31;38.32;102889.16;7311840;19;131693;-64
2021/12/15 03:00:23;;;;;;;4.63;3.45;;;;;;;20.29;38.05;102881.00;7315900;19;130682;-64
2021/12/15 03:05:28;;;;;;;4.45;3.40;;;;;;;20.30;38.36;102888.28;7315331;19;130231;-64
2021/12/15 03:16:07;;;;;;;4.45;3.22;;;;;;;20.26;38.33;102873.94;7311243;19;130605;-64
2021/12/15 03:18:37;;;;;;;4.07;3.08;;;;;;;20.25;38.12;102877.78;7310872;19;130597;-64
2021/12/15 03:21:11;;;;;;;6.20;3.30;;;;;;;20.23;38.27;102871.56;7311672;19;130498;-64
2021/12/15 03:23:45;;;;;;;6.03;2.97;;;;;;;20.23;38.19;102876.28;7313985;19;128904;-64
2021/12/15 03:26:16;;;;;;;4.32;3.00;;;;;;;20.22;38.12;102869.84;7315094;19;129426;-65
2021/12/15 03:39:34;;;;;;;4.43;3.10;;;;;;;20.19;38.59;102880.53;7311811;19;130901;-65
2021/12/15 03:42:06;;;;;;;4.13;3.10;;;;;;;20.17;38.04;102889.09;7308660;19;130528;-64
2021/12/15 03:44:37;;;;;;;4.82;3.10;;;;;;;20.15;38.63;102882.91;7313254;19;128932;-64
2021/12/15 03:47:08;;;;;;;3.70;2.90;;;;;;;20.15;38.46;102885.69;7307442;19;128941;-64
2021/12/15 03:49:35;;;;;;;4.32;3.10;;;;;;;20.16;38.01;102890.16;7311580;19;130771;-63
2021/12/15 03:52:05;;;;;;;4.22;2.58;;;;;;;20.13;38.14;102891.41;7311931;19;131832;-64
2021/12/15 03:54:32;;;;;;;5.53;2.97;;;;;;;20.13;38.27;102899.75;7311746;19;129068;-64
2021/12/15 03:56:59;;;;;;;3.13;2.60;;;;;;;20.13;38.24;102896.13;7311971;19;129535;-64
2021/12/15 03:59:28;;;;;;;4.05;2.92;;;;;;;20.12;38.22;102900.81;7308675;19;131611;-64
2021/12/15 04:01:55;;;;;;;4.63;3.10;;;;;;;20.12;38.15;102900.81;7309487;19;130648;-64
2021/12/15 04:04:22;;;;;;;3.25;2.92;;;;;;;20.11;38.76;102906.59;7309223;19;130724;-64
2021/12/15 04:06:49;;;;;;;3.38;3.00;;;;;;;20.10;38.34;102904.88;7311920;19;128994;-64
2021/12/15 04:09:17;;;;;;;3.58;3.03;;;;;;;20.10;38.65;102904.88;7313027;19;130788;-65
2021/12/15 04:11:45;;;;;;;3.75;2.47;;;;;;;20.10;38.63;102910.44;7311018;19;131371;-64
2021/12/15 04:14:22;;;;;;;2.92;2.63;;;;;;;20.09;38.24;102904.03;7313672;19;130211;-64
2021/12/15 04:17:01;;;;;;;3.33;2.58;;;;;;;20.08;38.52;102902.31;7310666;19;129550;-64
2021/12/15 04:19:30;;;;;;;3.15;2.60;;;;;;;20.07;38.44;102896.94;7311522;19;130772;-64
2021/12/15 04:21:58;;;;;;;3.00;2.70;;;;;;;20.05;38.22;102902.72;7310076;19;131263;-64
2021/12/15 04:24:27;;;;;;;8.55;2.85;;;;;;;20.05;38.45;102901.88;7313224;19;131052;-65
2021/12/15 04:26:57;;;;;;;4.30;2.78;;;;;;;20.05;38.24;102904.66;7312314;19;129505;-64
2021/12/15 04:29:24;;;;;;;3.70;2.97;;;;;;;20.04;38.47;102905.72;7311968;19;130886;-63
2021/12/15 04:31:55;;;;;;;3.92;2.80;;;;;;;20.04;38.26;102911.28;7312892;19;132048;-64
2021/12/15 04:34:22;;;;;;;4.45;3.08;;;;;;;20.03;38.60;102904.00;7310053;19;128807;-64
2021/12/15 04:36:52;;;;;;;4.72;3.00;;;;;;;20.02;38.49;102907.84;7313835;19;130345;-65
2021/12/15 04:39:23;;;;;;;3.55;2.50;;;;;;;20.02;38.32;102908.69;7309724;19;130973;-64
2021/12/15 04:41:52;;;;;;;5.68;3.17;;;;;;;20.01;38.24;102917.25;7310564;19;131485;-64
2021/12/15 04:44:24;;;;;;;4.20;2.85;;;;;;;20.00;38.74;102910.81;7310088;19;129399;-64
2021/12/15 04:47:00;;;;;;;4.25;2.97;;;;;;;19.99;38.52;102914.66;7311877;19;130600;-64
2021/12/15 04:49:33;;;;;;;2.80;2.50;;;;;;;19.98;38.67;102919.34;7310918;19;130667;-64
2021/12/15 04:52:00;;;;;;;3.90;3.00;;;;;;;19.97;38.74;102920.41;7310001;19;131283;-64
2021/12/15 04:54:28;;;;;;;3.08;2.78;;;;;;;19.96;38.29;102921.47;7312013;19;129501;-64
2021/12/15 04:56:56;;;;;;;3.50;2.50;;;;;;;19.97;38.47;102922.34;7308996;19;129235;-64
2021/12/15 04:59:23;;;;;;;2.92;2.60;;;;;;;19.95;38.73;102930.84;7312547;19;130816;-64
2021/12/15 05:01:50;;;;;;;4.70;2.90;;;;;;;19.95;38.66;102925.31;7310088;19;131153;-64
2021/12/15 05:04:17;;;;;;;3.75;2.88;;;;;;;19.95;38.33;102924.47;7311910;19;129697;-64
2021/12/15 05:06:44;;;;;;;4.18;2.70;;;;;;;19.94;38.59;102929.13;7310794;19;129496;-65
2021/12/15 05:09:11;;;;;;;4.55;2.90;;;;;;;19.94;38.43;102920.81;7309228;19;130344;-64
2021/12/15 05:11:38;;;;;;;4.13;2.95;;;;;;;19.95;38.47;102930.84;7312588;19;131093;-64
2021/12/15 05:14:05;;;;;;;3.85;2.78;;;;;;;19.93;38.66;102927.47;7307821;19;129160;-64
2021/12/15 05:16:32;;;;;;;3.33;2.60;;;;;;;19.93;38.28;102930.22;7313582;19;129576;-65
2021/12/15 05:18:59;;;;;;;5.45;3.42;;;;;;;19.93;38.80;102933.00;7309435;19;130659;-64
2021/12/15 05:21:28;;;;;;;4.07;3.25;;;;;;;19.93;38.51;102937.69;7310019;19;130652;-64
2021/12/15 05:23:59;;;;;;;4.05;3.03;;;;;;;19.93;38.65;102930.22;7311723;19;130447;-64
2021/12/15 05:26:29;;;;;;;3.75;2.58;;;;;;;19.94;38.72;102931.91;7310588;19;129547;-64
2021/12/15 05:28:55;;;;;;;6.70;2.60;;;;;;;19.95;38.64;102936.41;7310537;19;130732;-64
2021/12/15 05:31:22;;;;;;;4.35;2.65;;;;;;;19.95;38.38;102933.63;7307660;19;130444;-64
2021/12/15 05:33:49;;;;;;;5.35;2.53;;;;;;;19.95;38.45;102936.41;7312919;19;129113;-64
2021/12/15 05:36:16;;;;;;;4.28;2.60;;;;;;;19.96;38.57;102937.28;7307912;19;128862;-64
2021/12/15 05:38:43;;;;;;;3.97;2.95;;;;;;;19.94;38.63;102937.47;7309125;19;131069;-64
2021/12/15 05:41:10;;;;;;;5.57;2.90;;;;;;;19.95;38.64;102935.56;7307662;19;130866;-64
2021/12/15 05:43:36;;;;;;;3.03;2.53;;;;;;;19.94;38.45;102939.41;7311188;19;129284;-64
2021/12/15 05:46:03;;;;;;;6.20;2.55;;;;;;;19.94;38.63;102939.41;7307478;19;128952;-64
2021/12/15 05:48:30;;;;;;;4.88;2.90;;;;;;;19.93;38.71;102944.13;7308353;19;130747;-64
2021/12/15 05:50:57;;;;;;;5.85;2.78;;;;;;;19.91;38.29;102935.13;7306538;19;132765;-64
2021/12/15 05:53:24;;;;;;;3.38;2.60;;;;;;;19.92;38.68;102938.75;7308963;19;128841;-64
2021/12/15 05:55:51;;;;;;;3.50;2.45;;;;;;;19.93;38.32;102944.13;7302943;19;130618;-66
2021/12/15 05:58:18;;;;;;;4.20;2.45;;;;;;;19.96;38.31;102940.91;7309215;19;130599;-65
2021/12/15 06:00:48;;;;;;;2.63;2.35;;;;;;;19.98;38.63;102941.56;7309635;19;131775;-65
2021/12/15 06:03:15;;;;;;;4.65;2.58;;;;;;;19.99;38.34;102937.75;7315816;19;128800;-65
2021/12/15 06:05:42;;;;;;;4.15;2.63;;;;;;;20.01;38.60;102939.47;7317112;19;130145;-65
2021/12/15 06:08:09;;;;;;;3.45;2.50;;;;;;;20.03;38.41;102946.53;7309113;19;131159;-65
2021/12/15 06:10:39;;;;;;;4.85;3.60;;;;;;;20.04;38.33;102950.19;7315322;19;130615;-64
2021/12/15 06:13:10;;;;;;;9.48;3.83;;;;;;;20.04;38.50;102953.81;7313955;19;130165;-65
2021/12/15 06:15:38;;;;;;;8.52;3.90;;;;;;;20.04;38.25;102953.81;7318974;19;128903;-65
2021/12/15 06:18:09;;;;;;;10.40;3.42;;;;;;;20.05;38.35;102946.34;7315521;19;131342;-65
2021/12/15 06:20:36;;;;;;;8.57;3.58;;;;;;;20.05;38.19;102951.91;7315170;19;131311;-65
2021/12/15 06:23:09;;;;;;;9.23;3.35;;;;;;;20.05;38.51;102955.53;7309042;19;128919;-65
2021/12/15 06:25:37;;;;;;;8.05;3.60;;;;;;;20.04;38.47;102956.59;7312990;19;130649;-65
2021/12/15 06:28:04;;;;;;;5.57;4.45;;;;;;;20.04;38.42;102956.59;7316191;19;130559;-67
2021/12/15 06:30:33;;;;;;;11.70;5.30;;;;;;;20.04;38.60;102959.34;7313093;19;132130;-65
2021/12/15 06:33:00;;;;;;;12.98;4.95;;;;;;;20.03;38.26;102962.34;7315531;19;128879;-65
2021/12/15 06:35:27;;;;;;;8.27;3.83;;;;;;;20.03;38.41;102959.59;7309483;19;131141;-65
2021/12/15 06:37:54;;;;;;;9.55;3.80;;;;;;;20.02;38.60;102960.63;7312530;19;131987;-65
2021/12/15 06:40:21;;;;;;;9.45;4.45;;;;;;;20.01;38.42;102959.75;7314044;19;131273;-65
2021/12/15 06:42:47;;;;;;;9.27;4.05;;;;;;;20.01;38.43;102950.59;7315314;19;129573;-65
2021/12/15 06:45:18;;;;;;;7.57;3.95;;;;;;;19.99;38.48;102954.44;7314168;19;129043;-65
2021/12/15 06:58:46;;;;;;;23.70;4.18;;;;;;;19.94;38.56;102961.63;7312377;19;131222;-65
2021/12/15 07:01:14;;;;;;;14.68;4.07;;;;;;;19.94;38.69;102981.09;7315959;19;131300;-65
2021/12/15 07:03:41;;;;;;;7.32;3.72;;;;;;;19.94;38.49;102978.31;7315391;19;128913;-66
2021/12/15 07:06:08;;;;;;;7.50;3.65;;;;;;;19.94;38.58;102983.84;7314138;19;129093;-65
2021/12/15 07:08:36;;;;;;;10.43;3.83;;;;;;;19.92;38.84;102992.41;7314140;19;131142;-65
2021/12/15 07:11:04;;;;;;;5.88;3.30;;;;;;;19.92;38.71;102986.84;7314329;19;131253;-65
2021/12/15 07:13:32;;;;;;;9.43;3.45;;;;;;;19.92;38.32;102986.84;7317624;19;130596;-65
2021/12/15 07:16:01;;;;;;;6.30;3.33;;;;;;;19.91;38.36;102990.69;7312980;19;130026;-64
2021/12/15 07:21:19;;;;;;;6.30;3.38;;;;;;;19.89;38.34;102984.47;7310766;19;130646;-65
2021/12/15 07:23:46;;;;;;;6.80;3.42;;;;;;;19.90;38.64;102990.88;7314219;19;128957;-65
2021/12/15 07:26:14;;;;;;;7.38;3.33;;;;;;;19.89;38.76;102986.38;7312692;19;128870;-65
2021/12/15 07:28:41;;;;;;;9.80;3.38;;;;;;;19.88;38.74;102991.09;7315522;19;131328;-65
2021/12/15 07:31:08;;;;;;;7.50;3.47;;;;;;;19.87;38.75;102992.16;7311697;19;130291;-65
2021/12/15 07:33:35;;;;;;;6.10;2.95;;;;;;;19.87;38.67;102992.16;7313684;19;129599;-65
2021/12/15 07:36:04;;;;;;;8.38;3.20;;;;;;;19.86;38.76;102996.00;7315447;19;130725;-65
2021/12/15 07:38:32;;;;;;;4.63;2.75;;;;;;;19.87;38.64;102994.94;7307864;19;131166;-65
2021/12/15 07:40:58;;;;;;;4.97;2.60;;;;;;;19.86;38.73;102998.75;7313277;19;131412;-65
2021/12/15 07:43:25;;;;;;;15.43;3.20;;;;;;;19.85;38.32;103008.16;7310660;19;128952;-65
2021/12/15 07:46:03;;;;;;;7.10;3.38;;;;;;;19.86;38.22;102998.75;7315863;19;128868;-65
2021/12/15 07:48:35;;;;;;;7.90;3.03;;;;;;;19.85;38.60;103002.59;7314804;19;131973;-65
2021/12/15 07:51:06;;;;;;;4.53;2.95;;;;;;;19.84;38.62;103010.09;7312413;19;130810;-66
2021/12/15 07:53:33;;;;;;;6.20;2.97;;;;;;;19.84;38.56;103012.00;7314756;19;128981;-65
2021/12/15 07:55:59;;;;;;;5.90;2.88;;;;;;;19.83;38.37;103007.50;7309063;19;128798;-65
2021/12/15 07:58:28;;;;;;;6.85;3.13;;;;;;;19.83;38.62;103015.84;7317616;19;130420;-66
2021/12/15 08:00:59;;;;;;;4.90;2.72;;;;;;;19.82;38.42;103017.75;7312387;19;131230;-65
2021/12/15 08:03:27;;;;;;;5.90;3.00;;;;;;;19.82;38.69;103015.00;7312064;19;129090;-65
2021/12/15 08:05:54;;;;;;;7.18;2.70;;;;;;;19.83;38.57;103021.38;7312889;19;129020;-65
2021/12/15 08:08:21;;;;;;;5.18;2.90;;;;;;;19.82;38.42;103019.66;7316854;19;130688;-65
2021/12/15 08:10:50;;;;;;;4.18;2.58;;;;;;;19.82;38.65;103014.13;7314140;19;130728;-65
2021/12/15 08:13:16;;;;;;;4.72;2.67;;;;;;;19.82;38.77;103019.66;7316129;19;128712;-65
2021/12/15 08:15:44;;;;;;;5.03;2.80;;;;;;;19.82;38.61;103015.00;7312806;19;129131;-65
2021/12/15 08:18:11;;;;;;;5.82;2.70;;;;;;;19.82;38.35;103014.13;7314103;19;130700;-65
2021/12/15 08:20:38;;;;;;;5.60;2.80;;;;;;;19.82;38.63;103022.44;7313958;19;130519;-65
2021/12/15 08:23:05;;;;;;;5.72;2.60;;;;;;;19.82;38.90;103016.88;7313846;19;128982;-65
2021/12/15 08:25:34;;;;;;;4.32;2.90;;;;;;;19.82;38.72;103028.88;7314417;19;129469;-65
2021/12/15 08:28:03;;;;;;;5.68;2.75;;;;;;;19.83;38.54;103018.59;7312861;19;130571;-65
2021/12/15 08:30:31;;;;;;;7.65;3.05;;;;;;;19.83;38.51;103032.50;7315743;19;130490;-65
2021/12/15 08:33:03;;;;;;;3.80;2.75;;;;;;;19.83;38.42;103029.72;7312208;19;129291;-65
2021/12/15 08:35:41;;;;;;;7.95;2.78;;;;;;;19.83;38.64;103021.38;7315927;19;129204;-65
2021/12/15 08:38:09;;;;;;;5.88;2.85;;;;;;;19.82;38.49;103022.44;7311918;19;130769;-65
2021/12/15 08:40:36;;;;;;;2.92;2.10;;;;;;;19.82;38.35;103020.53;7315022;19;132213;-65
2021/12/15 08:43:04;;;;;;;4.97;2.47;;;;;;;19.82;38.59;103026.09;7312808;19;129926;-65
2021/12/15 08:45:31;;;;;;;3.33;2.45;;;;;;;19.82;38.57;103014.13;7314459;19;131493;-65
2021/12/15 08:48:00;;;;;;;3.17;2.60;;;;;;;19.81;38.72;103023.53;7313050;19;131075;-66
2021/12/15 08:50:31;;;;;;;4.20;2.58;;;;;;;19.82;38.73;103026.09;7314480;19;130756;-65
2021/12/15 08:52:58;;;;;;;4.05;2.70;;;;;;;19.82;38.47;103028.88;7314163;19;129137;-65
2021/12/15 08:55:26;;;;;;;4.78;2.45;;;;;;;19.82;38.29;103030.78;7313423;19;130022;-65
2021/12/15 08:57:56;;;;;;;3.15;2.40;;;;;;;19.81;38.29;103031.88;7315375;19;130677;-65
2021/12/15 09:00:25;;;;;;;4.85;2.60;;;;;;;19.81;38.71;103029.09;7310361;19;130432;-65
2021/12/15 09:02:55;;;;;;;5.15;2.45;;;;;;;19.81;38.33;103032.72;7314670;19;129208;-65
2021/12/15 09:05:24;;;;;;;5.00;2.40;;;;;;;19.81;38.65;103029.94;7312225;19;128882;-65
2021/12/15 09:07:53;;;;;;;3.50;2.72;;;;;;;19.81;38.48;103041.03;7314270;19;130607;-65
2021/12/15 09:10:23;;;;;;;6.22;2.47;;;;;;;19.82;38.78;103041.88;7310990;19;131045;-65
2021/12/15 09:12:50;;;;;;;3.58;2.40;;;;;;;19.81;38.75;103038.25;7314377;19;128786;-65
2021/12/15 09:15:17;;;;;;;4.50;2.58;;;;;;;19.82;38.75;103045.53;7311848;19;128796;-65
2021/12/15 09:17:44;;;;;;;4.07;2.30;;;;;;;19.82;38.41;103041.88;7313750;19;130550;-65
2021/12/15 09:20:15;;;;;;;7.25;2.50;;;;;;;19.82;38.44;103047.44;7311691;19;131280;-66
2021/12/15 09:22:42;;;;;;;4.03;2.65;;;;;;;19.81;38.76;103045.75;7312468;19;128989;-65
2021/12/15 09:25:11;;;;;;;5.25;2.47;;;;;;;19.81;38.65;103051.31;7314153;19;128699;-65
2021/12/15 09:27:42;;;;;;;5.38;2.53;;;;;;;19.80;38.46;103053.22;7310449;19;132752;-65
2021/12/15 09:30:13;;;;;;;2.53;2.30;;;;;;;19.81;38.24;103059.66;7313418;19;131289;-65
2021/12/15 09:32:40;;;;;;;2.55;2.20;;;;;;;19.80;38.73;103063.47;7311794;19;129327;-66
2021/12/15 09:35:08;;;;;;;3.50;2.60;;;;;;;19.80;38.53;103060.69;7315059;19;129942;-66
2021/12/15 09:37:35;;;;;;;4.28;2.15;;;;;;;19.81;38.60;103067.97;7319871;19;130453;-65
2021/12/15 09:40:05;;;;;;;4.68;2.40;;;;;;;19.80;38.73;103066.25;7321512;19;130751;-65
2021/12/15 09:42:36;;;;;;;3.88;2.60;;;;;;;19.79;38.42;103072.88;7318614;19;128941;-65
2021/12/15 09:45:30;;;;;;;4.82;2.40;;;;;;;19.79;38.33;103073.72;7319714;19;129236;-65
2021/12/15 09:56:22;;;;;;;4.65;2.38;;;;;;;19.79;38.51;103075.66;7321058;19;130757;-65
2021/12/15 10:02:12;;;;;;;2.92;2.47;;;;;;;19.76;38.51;103093.56;7320652;19;131156;-65
2021/12/15 10:18:07;;;;;;;4.18;2.45;;;;;;;19.72;38.62;103089.47;7315962;19;129024;-64
2021/12/15 10:20:39;;;;;;;3.78;2.67;;;;;;;19.74;38.33;103097.59;7318360;19;130853;-64
2021/12/15 10:23:10;;;;;;;4.00;2.42;;;;;;;19.73;38.64;103085.66;7315904;19;131461;-65
2021/12/15 10:25:49;;;;;;;3.28;2.22;;;;;;;19.75;38.35;103100.19;7317342;19;129199;-65
2021/12/15 10:28:30;;;;;;;4.00;2.60;;;;;;;19.75;38.73;103090.97;7319813;19;129325;-65
2021/12/15 10:31:02;;;;;;;6.65;2.65;;;;;;;19.73;38.75;103091.19;7316347;19;132822;-65
2021/12/15 10:33:31;;;;;;;3.80;2.88;;;;;;;19.73;38.33;103093.09;7318418;19;131236;-65
2021/12/15 10:36:05;;;;;;;3.88;2.50;;;;;;;19.72;38.33;103089.47;7316370;19;134034;-65
2021/12/15 10:38:41;;;;;;;4.90;2.80;;;;;;;19.72;38.39;103083.03;7317242;19;128652;-63
2021/12/15 10:41:29;;;;;;;2.90;2.33;;;;;;;19.72;38.70;103085.81;7317344;19;130760;-65
2021/12/15 10:44:21;;;;;;;4.28;2.70;;;;;;;19.72;38.56;103091.38;7313662;19;130260;-65
2021/12/15 10:46:55;;;;;;;4.30;2.47;;;;;;;19.71;38.61;103089.66;7318526;19;129185;-65
2021/12/15 10:49:32;;;;;;;3.55;2.50;;;;;;;19.71;38.30;103084.09;7314397;19;129026;-65
2021/12/15 10:52:07;;;;;;;3.25;2.60;;;;;;;19.72;38.72;103080.28;7315513;19;131340;-65
2021/12/15 10:54:49;;;;;;;3.80;2.30;;;;;;;19.69;38.56;103089.88;7315544;19;130460;-64
2021/12/15 10:57:29;;;;;;;3.83;2.38;;;;;;;19.70;38.70;103097.16;7315527;19;129169;-65
2021/12/15 10:59:57;;;;;;;4.32;2.63;;;;;;;19.68;38.75;103091.81;7318342;19;129161;-65
2021/12/15 11:02:39;;;;;;;2.88;2.55;;;;;;;19.68;38.57;103089.03;7313449;19;131001;-65
2021/12/15 11:05:19;;;;;;;3.78;2.40;;;;;;;19.69;38.78;103092.66;7314953;19;130442;-65
2021/12/15 11:07:53;;;;;;;3.22;2.10;;;;;;;19.68;38.57;103094.59;7314778;19;128811;-65
2021/12/15 11:10:26;;;;;;;3.47;2.55;;;;;;;19.68;38.29;103085.38;7317404;19;128858;-65
2021/12/15 11:12:59;;;;;;;4.13;2.33;;;;;;;19.68;38.62;103086.25;7318220;19;130577;-65
2021/12/15 11:15:39;;;;;;;4.82;2.50;;;;;;;19.68;38.34;103091.81;7314475;19;131278;-64
2021/12/15 11:18:16;;;;;;;3.80;2.55;;;;;;;19.68;38.78;103091.81;7316756;19;130824;-65
2021/12/15 11:20:53;;;;;;;4.82;2.70;;;;;;;19.66;38.52;103082.81;7314300;19;129523;-65
2021/12/15 11:23:24;;;;;;;;;;;;;;;19.65;38.36;103088.53;7316932;19;131516;-64
2021/12/15 11:26:00;;;;;;;3.22;2.20;;;;;;;19.67;38.52;103076.19;7315206;19;131270;-65
2021/12/15 11:28:47;;;;;;;3.33;2.40;;;;;;;19.66;38.52;103085.59;7313716;19;128897;-64
2021/12/15 11:31:24;;;;;;;3.63;2.00;;;;;;;19.65;38.39;103086.66;7317384;19;128900;-64
2021/12/15 11:33:57;;;;;;;4.10;2.67;;;;;;;19.65;38.84;103089.41;7315258;19;131284;-65
2021/12/15 11:36:26;;;;;;;6.03;2.40;;;;;;;19.64;38.66;103084.94;7314658;19;130404;-65
2021/12/15 11:39:04;;;;;;;4.63;2.40;;;;;;;19.63;38.53;103094.31;7315120;19;128884;-65
2021/12/15 11:41:40;;;;;;;3.65;2.13;;;;;;;19.64;38.81;103082.16;7313992;19;128896;-65
2021/12/15 11:44:15;;;;;;;3.25;2.50;;;;;;;19.64;38.57;103079.38;7315978;19;130457;-65
2021/12/15 11:46:49;;;;;;;5.53;2.63;;;;;;;19.63;38.47;103077.66;7312094;19;130364;-65
2021/12/15 11:49:17;;;;;;;3.10;2.33;;;;;;;19.63;38.81;103083.19;7316123;19;128964;-65
2021/12/15 11:52:09;;;;;;;3.05;2.20;;;;;;;19.63;38.51;103079.59;7311089;19;129295;-65
2021/12/15 11:54:38;;;;;;;3.65;2.33;;;;;;;19.62;38.66;103069.53;7313521;19;131440;-65
2021/12/15 11:57:17;;;;;;;3.70;2.25;;;;;;;19.63;38.37;103074.88;7315868;19;130543;-64
2021/12/15 11:59:49;;;;;;;4.32;2.38;;;;;;;19.61;38.82;103071.44;7313854;19;129208;-66
2021/12/15 12:02:21;;;;;;;2.80;2.10;;;;;;;19.61;38.47;103077.00;7313717;19;129455;-65
2021/12/15 12:05:06;;;;;;;2.88;2.15;;;;;;;19.61;38.48;103071.44;7314989;19;131505;-65
2021/12/15 12:07:35;;;;;;;3.15;2.05;;;;;;;19.60;38.77;103072.50;7314091;19;130750;-65
2021/12/15 12:10:26;;;;;;;3.58;2.20;;;;;;;19.60;38.96;103077.19;7310904;19;128998;-65
2021/12/15 12:13:05;;;;;;;3.50;2.00;;;;;;;19.59;38.62;103065.22;7312747;19;129752;-66
2021/12/15 12:15:35;;;;;;;5.85;2.30;;;;;;;19.59;38.99;103068.00;7310801;19;131692;-64
2021/12/15 12:18:07;;;;;;;3.83;2.20;;;;;;;19.57;38.88;103067.34;7310302;19;131971;-64
2021/12/15 12:20:38;;;;;;;2.67;2.08;;;;;;;19.57;38.97;103072.03;7313173;19;128846;-65
2021/12/15 12:23:08;;;;;;;2.35;2.15;;;;;;;19.57;38.71;103067.34;7315841;19;130250;-65
2021/12/15 12:25:39;;;;;;;2.83;2.05;;;;;;;19.57;38.82;103067.34;7313379;19;130647;-64
2021/12/15 12:28:10;;;;;;;5.07;2.38;;;;;;;19.57;38.78;103072.03;7312285;19;130342;-65
2021/12/15 12:30:43;;;;;;;8.75;2.38;;;;;;;19.57;38.80;103067.34;7314421;19;130572;-65
2021/12/15 12:33:12;;;;;;;4.68;2.55;;;;;;;19.56;38.74;103065.66;7312733;19;129284;-65
2021/12/15 12:35:42;;;;;;;4.32;2.45;;;;;;;19.56;38.98;103057.31;7312201;19;133562;-65
2021/12/15 12:38:19;;;;;;;2.65;2.10;;;;;;;19.56;39.00;103062.00;7316036;19;131322;-65
2021/12/15 12:41:03;;;;;;;3.35;2.40;;;;;;;19.55;38.57;103061.16;7314362;19;129120;-66
2021/12/15 12:43:32;;;;;;;4.65;2.40;;;;;;;19.55;38.76;103058.38;7313794;19;128688;-65
2021/12/15 12:46:35;;;;;;;2.88;2.30;;;;;;;19.53;38.80;103054.94;7314541;19;130564;-65
2021/12/15 12:49:27;;;;;;;3.83;2.80;;;;;;;19.53;38.52;103044.66;7316125;19;130475;-66